createdAt,value
2022-07-29T00:26:00.554Z,997.08
2022-07-29T00:55:19.234Z,996.85
2022-07-29T01:24:32.014Z,996.94
2022-07-29T01:53:48.492Z,997.08
2022-07-29T02:23:06.452Z,997.1
2022-07-29T02:52:20.771Z,997.26
2022-07-29T03:21:31.758Z,997.46
2022-07-29T03:50:49.605Z,997.67
2022-07-29T04:20:07.318Z,997.74
2022-07-29T04:49:22.855Z,997.96
2022-07-29T05:18:35.430Z,998.09
2022-07-29T05:47:38.050Z,998.33
2022-07-29T06:16:56.728Z,998.45
2022-07-29T06:46:21.867Z,998.45
2022-07-29T07:15:20.305Z,998.54
2022-07-29T07:45:12.887Z,998.89
2022-07-29T08:13:31.077Z,998.83
2022-07-29T08:42:48.166Z,999.01
2022-07-29T09:12:31.920Z,998.97
2022-07-29T09:41:07.249Z,998.73
2022-07-29T10:09:49.742Z,998.53
2022-07-29T10:38:48.290Z,998.4
2022-07-29T11:07:20.447Z,998.37
2022-07-29T11:36:41.112Z,998.38
2022-07-29T12:05:52.243Z,998.46
2022-07-29T12:34:27.664Z,998.48
2022-07-29T13:03:59.924Z,998.48
2022-07-29T13:32:32.528Z,998.51
2022-07-29T14:01:54.255Z,998.32
2022-07-29T14:31:16.171Z,998.21
2022-07-29T15:00:32.586Z,998.23
2022-07-29T15:29:55.180Z,998.33
2022-07-29T15:59:22.881Z,998.16
2022-07-29T16:27:51.949Z,998
2022-07-29T16:56:42.837Z,998.03
2022-07-29T17:25:42.005Z,998.31
2022-07-29T17:54:51.052Z,998.35
2022-07-29T18:24:09.410Z,998.56
2022-07-29T18:52:57.633Z,998.69
2022-07-29T19:22:09.687Z,998.88
2022-07-29T19:51:15.470Z,999.31
2022-07-29T20:20:21.708Z,999.38
2022-07-29T20:49:27.685Z,999.47
2022-07-29T21:18:33.227Z,999.58
2022-07-29T21:47:03.702Z,999.86
2022-07-29T22:15:56.615Z,1000.1
2022-07-29T22:44:36.033Z,1000.33
2022-07-29T23:13:04.344Z,1000.64
2022-07-29T23:42:23.265Z,1000.96
